Flugplatz - Wetter - Augsburg

[Quelle: ADDS]
METAR
EDMA 212350Z AUTO 14004KT 9999 FEW036/// BKN055/// OVC069/// M02/M03 Q1015 =
TAF
EDMA 211700Z 2118/2203 25005KT 9999 SCT030 BECMG 2118/2121 15004KT TEMPO 2201/2203 3000 -SN BKN013 =
SR / SS: 06:57 / 16:01 UTC (Augsburg 2018-01-22)

Flugplatz - Wetter - Laupheim

[Quelle: ADDS]
METAR
ETHL 212320Z 20005KT 9000 -SN SCT020 BKN040 00/M01 Q1014 BLU =
TAF
SR / SS: 07:00 / 16:06 UTC (Laupheim 2018-01-22)

Flugplatz - Wetter - Memmingen

[Quelle: ADDS]
METAR
EDJA 212350Z 15004KT 6000 -SN FEW009 BKN037 M01/M01 Q1014 =
TAF
EDJA 211700Z 2118/2203 27005KT 9999 SCT030 BECMG 2118/2121 19005KT BECMG 2123/2201 3000 -SN TEMPO 2201/2203 1100 SN BKN006 =
SR / SS: 06:56 / 16:05 UTC (Memmingen 2018-01-22)

Flugplatz - Wetter - Neuburg/Donau

[Quelle: ADDS]
METAR
ETSN 212338Z 03001KT 4500 MIFG BR SCT120 BKN160 BKN230 M04/M05 Q1016 GRN =
TAF
ETSN 212300Z 2200/2209 08005KT 9999 NSW SCT015 BKN030 TEMPO 2200/2203 VRB03KT 5000 BR BKN015 BKN025 BECMG 2202/2204 14005KT 3000 -SN BKN010 BKN030 TEMPO 2204/2209 16010KT 0800 SN BKN004 OVC010 BY ETGL =
SR / SS: 06:55 / 15:58 UTC (Neuburg 2018-01-22)

Flugplatz - Wetter - Stuttgart

[Quelle: ADDS]
METAR
EDDS 212350Z 13004KT 4700 -SN FEW009 SCT027 OVC035 01/00 Q1013 =
TAF
EDDS 212300Z 2200/2224 VRB03KT 9999 SCT030 TEMPO 2200/2204 4000 -SN BKN012 PROB40 TEMPO 2200/2202 1500 SN BKN006 PROB30 TEMPO 2202/2204 1500 -FZRA BR BKN006 TEMPO 2204/2218 4000 -RA BR BKN012 BECMG 2214/2218 26006KT =
SR / SS: 07:03 / 16:06 UTC (Stuttgart 2018-01-22)

Flugplatz - Wetter - Niederstetten

[Quelle: ADDS]
METAR
ETHN 212320Z 14007KT 9999 BKN060 SCT100 M01/M02 Q1014 BLU =
TAF
SR / SS: 07:04 / 16:02 UTC (Niederstetten 2018-01-22)